| time (UTC) | temp C | wind direction | speed KPH | gust KPH | rain 1hr cm | rain 24hr cm | rain mn cm | humidity % | barometer mb |
| 20260507213047 | 22 | 298 | 16.1 | 27.4 | 0.00 | 0.00 | 0.00 | 19 | 1013.7 |
| 20260507211600 | 22 | 294 | 16.1 | 33.8 | 0.00 | 0.00 | 0.00 | 21 | 1013.8 |
| 20260507210042 | 21 | 284 | 11.3 | 32.2 | 0.00 | 0.00 | 0.00 | 22 | 1013.9 |
| 20260507204540 | 21 | 280 | 14.5 | 20.9 | 0.00 | 0.00 | 0.00 | 20 | 1014.1 |
| 20260507203042 | 21 | 257 | 16.1 | 27.4 | 0.00 | 0.00 | 0.00 | 19 | 1014.1 |
| 20260507201538 | 21 | 281 | 19.3 | 25.7 | 0.00 | 0.00 | 0.00 | 18 | 1014.1 |
| 20260507200037 | 20 | 252 | 12.9 | 25.7 | 0.00 | 0.00 | 0.00 | 23 | 1014.2 |
| 20260507194538 | 20 | 271 | 17.7 | 29.0 | 0.00 | 0.00 | 0.00 | 23 | 1014.3 |
| 20260507193036 | 20 | 290 | 19.3 | 30.6 | 0.00 | 0.00 | 0.00 | 24 | 1014.4 |
| 20260507191530 | 20 | 278 | 6.4 | 24.1 | 0.00 | 0.00 | 0.00 | 25 | 1014.4 |
| 20260507190032 | 19 | 307 | 20.9 | 29.0 | 0.00 | 0.00 | 0.00 | 26 | 1014.5 |
| 20260507184525 | 18 | 293 | 12.9 | 32.2 | 0.00 | 0.00 | 0.00 | 24 | 1014.6 |
| 20260507183025 | 18 | 314 | 17.7 | 32.2 | 0.00 | 0.00 | 0.00 | 26 | 1014.7 |
| 20260507181523 | 18 | 298 | 14.5 | 30.6 | 0.00 | 0.00 | 0.00 | 25 | 1014.8 |
| 20260507180024 | 18 | 275 | 19.3 | 30.6 | 0.00 | 0.00 | 0.00 | 26 | 1014.9 |
| 20260507174519 | 17 | 330 | 19.3 | 27.4 | 0.00 | 0.00 | 0.00 | 27 | 1014.9 |
| 20260507173018 | 17 | 264 | 20.9 | 33.8 | 0.00 | 0.00 | 0.00 | 29 | 1015.0 |
| 20260507171515 | 17 | 283 | 19.3 | 25.7 | 0.00 | 0.00 | 0.00 | 29 | 1015.0 |
| 20260507170014 | 16 | 304 | 17.7 | 27.4 | 0.00 | 0.00 | 0.00 | 32 | 1015.0 |
| 20260507164512 | 16 | 304 | 25.7 | 33.8 | 0.00 | 0.00 | 0.00 | 29 | 1015.1 |
| 20260507163014 | 16 | 283 | 19.3 | 30.6 | 0.00 | 0.00 | 0.00 | 30 | 1014.8 |
| 20260507161508 | 15 | 250 | 17.7 | 30.6 | 0.00 | 0.00 | 0.00 | 32 | 1014.8 |
| 20260507160005 | 15 | 245 | 25.7 | 33.8 | 0.00 | 0.00 | 0.00 | 34 | 1014.8 |
| 20260507154503 | 15 | 270 | 19.3 | 32.2 | 0.00 | 0.00 | 0.00 | 37 | 1014.9 |
| 20260507153101 | 15 | 281 | 14.5 | 22.5 | 0.00 | 0.00 | 0.00 | 44 | 1015.2 |
| 20260507151556 | 13 | 269 | 8.0 | 20.9 | 0.00 | 0.00 | 0.00 | 51 | 1015.1 |
| 20260507150056 | 14 | 262 | 11.3 | 20.9 | 0.00 | 0.00 | 0.00 | 52 | 1015.1 |
| 20260507144553 | 13 | 250 | 17.7 | 25.7 | 0.00 | 0.00 | 0.00 | 57 | 1014.8 |
| 20260507143051 | 13 | 247 | 20.9 | 29.0 | 0.00 | 0.00 | 0.00 | 59 | 1014.6 |
| 20260507141555 | 12 | 222 | 20.9 | 29.0 | 0.00 | 0.00 | 0.00 | 62 | 1014.5 |
| 20260507140103 | 11 | 224 | 16.1 | 20.9 | 0.00 | 0.00 | 0.00 | 64 | 1014.4 |
| 20260507134546 | -17 | 0.0 | 0.0 | 0.00 | 0.00 | 0.00 | 1014.4 | ||
| 20260507133042 | -17 | 0.0 | 0.0 | 0.00 | 0.00 | 0.00 | 1014.4 | ||
| 20260507131543 | -17 | 0.0 | 0.0 | 0.00 | 0.00 | 0.00 | 1014.4 | ||
| 20260507130036 | 10 | 221 | 11.3 | 17.7 | 0.00 | 0.00 | 0.00 | 66 | 1014.5 |
| 20260507124535 | 10 | 226 | 17.7 | 22.5 | 0.00 | 0.00 | 0.00 | 65 | 1014.2 |
| 20260507123031 | 10 | 231 | 17.7 | 25.7 | 0.00 | 0.00 | 0.00 | 62 | 1014.1 |
| 20260507121527 | 11 | 246 | 19.3 | 24.1 | 0.00 | 0.00 | 0.00 | 61 | 1014.1 |
| 20260507120027 | 11 | 243 | 16.1 | 22.5 | 0.00 | 0.00 | 0.00 | 59 | 1014.2 |
| 20260507114525 | 11 | 253 | 16.1 | 20.9 | 0.00 | 0.00 | 0.00 | 58 | 1014.2 |
| 20260507113024 | 11 | 233 | 16.1 | 19.3 | 0.00 | 0.00 | 0.00 | 58 | 1014.3 |
| 20260507111523 | 11 | 229 | 14.5 | 17.7 | 0.00 | 0.00 | 0.00 | 58 | 1014.4 |
| 20260507110022 | 11 | 232 | 14.5 | 17.7 | 0.00 | 0.00 | 0.00 | 62 | 1014.4 |
| 20260507104526 | 10 | 236 | 17.7 | 22.5 | 0.00 | 0.00 | 0.00 | 62 | 1014.4 |
| 20260507103023 | 11 | 225 | 14.5 | 17.7 | 0.00 | 0.00 | 0.00 | 61 | 1014.4 |
| 20260507101534 | 11 | 232 | 17.7 | 19.3 | 0.00 | 0.00 | 0.00 | 61 | 1014.4 |
| 20260507100027 | 11 | 226 | 16.1 | 19.3 | 0.00 | 0.00 | 0.00 | 61 | 1014.5 |
| 20260507094516 | 11 | 226 | 14.5 | 17.7 | 0.00 | 0.00 | 0.00 | 62 | 1014.6 |
| 20260507093020 | 11 | 233 | 12.9 | 17.7 | 0.00 | 0.00 | 0.00 | 60 | 1014.7 |
| 20260507091533 | 12 | 236 | 16.1 | 17.7 | 0.00 | 0.00 | 0.00 | 59 | 1014.7 |
| 20260507090012 | 12 | 224 | 16.1 | 20.9 | 0.00 | 0.00 | 0.00 | 59 | 1014.8 |
| 20260507084511 | 11 | 226 | 14.5 | 19.3 | 0.00 | 0.00 | 0.00 | 62 | 1014.8 |
| 20260507083014 | 11 | 226 | 12.9 | 17.7 | 0.00 | 0.00 | 0.00 | 62 | 1014.8 |
| 20260507081507 | 11 | 217 | 14.5 | 19.3 | 0.00 | 0.00 | 0.00 | 60 | 1014.8 |
| 20260507080006 | 12 | 221 | 14.5 | 17.7 | 0.00 | 0.00 | 0.00 | 55 | 1014.7 |
| 20260507074505 | 12 | 245 | 12.9 | 17.7 | 0.00 | 0.00 | 0.00 | 57 | 1014.7 |
| 20260507073113 | 12 | 224 | 14.5 | 17.7 | 0.00 | 0.00 | 0.00 | 57 | 1014.8 |
| 20260507071600 | 13 | 234 | 11.3 | 16.1 | 0.00 | 0.00 | 0.00 | 51 | 1014.7 |
| 20260507070135 | 13 | 238 | 9.7 | 16.1 | 0.00 | 0.00 | 0.00 | 50 | 1014.7 |
| 20260507064553 | 14 | 238 | 14.5 | 20.9 | 0.00 | 0.00 | 0.00 | 48 | 1014.6 |
| 20260507063053 | 14 | 246 | 11.3 | 16.1 | 0.00 | 0.00 | 0.00 | 48 | 1014.8 |
| 20260507061551 | 13 | 259 | 9.7 | 12.9 | 0.00 | 0.00 | 0.00 | 48 | 1014.8 |
| 20260507060049 | 14 | 284 | 4.8 | 11.3 | 0.00 | 0.00 | 0.00 | 44 | 1014.9 |
| 20260507054552 | 16 | 252 | 14.5 | 29.0 | 0.00 | 0.00 | 0.00 | 40 | 1014.5 |
| 20260507053046 | 15 | 240 | 22.5 | 35.4 | 0.00 | 0.00 | 0.00 | 39 | 1014.1 |
| 20260507051546 | 15 | 256 | 20.9 | 30.6 | 0.00 | 0.00 | 0.00 | 40 | 1014.1 |
| 20260507050045 | 15 | 269 | 17.7 | 27.4 | 0.00 | 0.00 | 0.00 | 43 | 1014.2 |
| 20260507044548 | 16 | 260 | 17.7 | 29.0 | 0.00 | 0.00 | 0.00 | 43 | 1014.2 |
| 20260507043043 | 16 | 266 | 16.1 | 27.4 | 0.00 | 0.00 | 0.00 | 44 | 1014.3 |
| 20260507041544 | 16 | 262 | 16.1 | 22.5 | 0.00 | 0.00 | 0.00 | 44 | 1014.4 |
| 20260507040040 | 16 | 256 | 12.9 | 25.7 | 0.00 | 0.00 | 0.00 | 42 | 1014.3 |
| 20260507034543 | 17 | 267 | 14.5 | 22.5 | 0.00 | 0.00 | 0.00 | 42 | 1014.1 |
| 20260507033038 | 16 | 262 | 9.7 | 16.1 | 0.00 | 0.00 | 0.00 | 42 | 1014.0 |
| 20260507031541 | 17 | 263 | 12.9 | 22.5 | 0.00 | 0.00 | 0.00 | 41 | 1013.9 |
| 20260507030041 | 17 | 255 | 14.5 | 19.3 | 0.00 | 0.00 | 0.00 | 42 | 1013.8 |
| 20260507024536 | 17 | 250 | 6.4 | 14.5 | 0.00 | 0.00 | 0.00 | 42 | 1013.9 |
| 20260507023034 | 18 | 300 | 11.3 | 19.3 | 0.00 | 0.00 | 0.00 | 39 | 1013.8 |
| 20260507021534 | 19 | 269 | 12.9 | 25.7 | 0.00 | 0.00 | 0.00 | 38 | 1013.8 |
| 20260507020034 | 19 | 301 | 14.5 | 24.1 | 0.00 | 0.00 | 0.00 | 37 | 1013.5 |
| 20260507014535 | 20 | 290 | 17.7 | 25.7 | 0.00 | 0.00 | 0.00 | 36 | 1013.6 |
| 20260507013035 | 20 | 298 | 19.3 | 33.8 | 0.00 | 0.00 | 0.00 | 35 | 1013.5 |
| 20260507011532 | 20 | 301 | 22.5 | 37.0 | 0.00 | 0.00 | 0.00 | 35 | 1013.3 |
| 20260507010030 | 21 | 284 | 20.9 | 30.6 | 0.00 | 0.00 | 0.00 | 34 | 1013.2 |
| 20260507004528 | 21 | 290 | 22.5 | 43.5 | 0.00 | 0.00 | 0.00 | 32 | 1013.0 |
| 20260507003027 | 21 | 293 | 29.0 | 43.5 | 0.00 | 0.00 | 0.00 | 30 | 1012.7 |
| 20260507001527 | 22 | 295 | 24.1 | 41.8 | 0.00 | 0.00 | 0.00 | 30 | 1012.6 |
| 20260507000028 | 22 | 291 | 30.6 | 46.7 | 0.00 | 0.00 | 0.00 | 29 | 1012.5 |
| 20260506234525 | 23 | 291 | 35.4 | 51.5 | 0.00 | 0.00 | 0.00 | 27 | 1012.4 |
| 20260506233025 | 23 | 307 | 32.2 | 45.1 | 0.00 | 0.00 | 0.00 | 27 | 1012.3 |
| 20260506231524 | 23 | 297 | 25.7 | 41.8 | 0.00 | 0.00 | 0.00 | 25 | 1012.5 |
| 20260506230023 | 23 | 283 | 25.7 | 37.0 | 0.00 | 0.00 | 0.00 | 26 | 1012.7 |
| 20260506224523 | 23 | 276 | 27.4 | 46.7 | 0.00 | 0.00 | 0.00 | 25 | 1012.7 |
| 20260506223021 | 24 | 300 | 27.4 | 46.7 | 0.00 | 0.00 | 0.00 | 25 | 1012.8 |
| 20260506221520 | 24 | 284 | 27.4 | 41.8 | 0.00 | 0.00 | 0.00 | 28 | 1012.8 |
| 20260506220028 | 24 | 298 | 25.7 | 37.0 | 0.00 | 0.00 | 0.00 | 29 | 1012.8 |
| 20260506214520 | 24 | 290 | 29.0 | 53.1 | 0.00 | 0.00 | 0.00 | 30 | 1012.9 |